createdAt,value
2024-02-11T00:00:59.666Z,98868.87
2024-02-11T00:02:03.911Z,98861.02
2024-02-11T00:03:06.463Z,98855.11
2024-02-11T00:04:08.985Z,98855.11
2024-02-11T00:05:11.726Z,98857.66
2024-02-11T00:06:15.854Z,98853.47
2024-02-11T00:07:18.272Z,98856.23
2024-02-11T00:08:20.524Z,98852.59
2024-02-11T00:09:22.773Z,98848.28
2024-02-11T00:10:25.262Z,98854.17
2024-02-11T00:11:28.958Z,98852.39
2024-02-11T00:12:31.557Z,98848.44
2024-02-11T00:13:34.122Z,98848.44
2024-02-11T00:14:37.649Z,98850.73
2024-02-11T00:15:41.244Z,98854.06
2024-02-11T00:16:45.453Z,98858.37
2024-02-11T00:17:49.603Z,98853.25
2024-02-11T00:18:52.490Z,98838.52
2024-02-11T00:19:54.643Z,98846.27
2024-02-11T00:20:57.103Z,98848.18
2024-02-11T00:22:01.289Z,98837.41
2024-02-11T00:23:05.275Z,98848.44
2024-02-11T00:24:08.274Z,98849.27
2024-02-11T00:25:12.060Z,98842.59
2024-02-11T00:26:14.632Z,98840.69
2024-02-11T00:27:19.667Z,98837.25
2024-02-11T00:28:22.568Z,98837.41
2024-02-11T00:29:24.892Z,98847.73
2024-02-11T00:30:28.493Z,98854.70
2024-02-11T00:31:30.930Z,98854.77
2024-02-11T00:32:34.776Z,98865.12
2024-02-11T00:33:39.569Z,98866.66
2024-02-11T00:34:42.253Z,98857.11
2024-02-11T00:35:46.669Z,98870.71
2024-02-11T00:36:50.358Z,98867.16
2024-02-11T00:37:53.310Z,98859.37
2024-02-11T00:38:55.401Z,98867.38
2024-02-11T00:39:58.191Z,98866.30
2024-02-11T00:41:01.705Z,98866.03
2024-02-11T00:42:04.873Z,98869.63
2024-02-11T00:43:11.633Z,98871.54
2024-02-11T00:44:15.672Z,98869.06
2024-02-11T00:45:19.223Z,98869.44
2024-02-11T00:46:21.986Z,98866.95
2024-02-11T00:47:24.738Z,98860.81
2024-02-11T00:48:27.317Z,98862.30
2024-02-11T00:49:31.452Z,98860.66
2024-02-11T00:50:34.269Z,98858.96
2024-02-11T00:51:37.037Z,98860.66
2024-02-11T00:52:43.947Z,98865.69
2024-02-11T00:53:46.769Z,98854.48
2024-02-11T00:54:49.409Z,98854.39
2024-02-11T00:55:52.336Z,98854.23
2024-02-11T00:56:56.741Z,98849.27
2024-02-11T00:57:58.981Z,98853.45
2024-02-11T00:59:01.336Z,98857.41
2024-02-11T01:00:09.216Z,98859.37
2024-02-11T01:01:12.875Z,98853.41
2024-02-11T01:02:15.790Z,98856.02
2024-02-11T01:03:18.534Z,98856.80
2024-02-11T01:04:20.888Z,98853.13
2024-02-11T01:05:23.846Z,98860.58
2024-02-11T01:06:27.165Z,98863.03
2024-02-11T01:07:32.537Z,98865.55
2024-02-11T01:08:35.173Z,98859.52
2024-02-11T01:09:38.025Z,98847.12
2024-02-11T01:10:40.772Z,98847.12
2024-02-11T01:11:44.305Z,98857.30
2024-02-11T01:12:47.717Z,98852.88
2024-02-11T01:13:50.280Z,98855.22
2024-02-11T01:14:56.770Z,98849.91
2024-02-11T01:15:59.022Z,98858.42
2024-02-11T01:17:01.810Z,98838.55
2024-02-11T01:18:05.407Z,98848.32
2024-02-11T01:19:07.869Z,98846.47
2024-02-11T01:20:14.047Z,98849.58
2024-02-11T01:21:16.341Z,98849.58
2024-02-11T01:22:20.219Z,98842.75
2024-02-11T01:23:24.387Z,98852.71
2024-02-11T01:24:26.750Z,98850.31
2024-02-11T01:25:29.129Z,98849.33
2024-02-11T01:26:31.186Z,98842.44
2024-02-11T01:27:35.262Z,98844.20
2024-02-11T01:28:40.421Z,98844.02
2024-02-11T01:29:42.627Z,98844.20
2024-02-11T01:30:46.780Z,98840.57
2024-02-11T01:31:49.007Z,98851.55
2024-02-11T01:32:51.335Z,98847.12
2024-02-11T01:33:53.963Z,98845.13
2024-02-11T01:34:56.165Z,98851.44
2024-02-11T01:35:58.394Z,98859.84
2024-02-11T01:37:01.259Z,98853.02
2024-02-11T01:38:03.593Z,98859.84
2024-02-11T01:39:06.516Z,98859.84
2024-02-11T01:40:18.609Z,98859.23
2024-02-11T01:41:21.076Z,98854.81
2024-02-11T01:42:23.774Z,98860.02
2024-02-11T01:43:26.267Z,98865.15
2024-02-11T01:44:31.076Z,98862.58
2024-02-11T01:45:35.242Z,98861.80
2024-02-11T01:46:41.243Z,98857.50
2024-02-11T01:47:46.727Z,98854.71
2024-02-11T01:48:49.823Z,98854.12
2024-02-11T01:49:52.952Z,98860.67
2024-02-11T01:50:55.471Z,98860.02
2024-02-11T01:51:59.917Z,98869.19
2024-02-11T01:53:04.597Z,98868.42
2024-02-11T01:54:07.215Z,98870.78
2024-02-11T01:55:14.591Z,98869.73
2024-02-11T01:56:22.303Z,98869.73
2024-02-11T01:57:24.704Z,98863.74
2024-02-11T01:58:29.252Z,98873.34
2024-02-11T01:59:35.654Z,98866.47
2024-02-11T02:00:38.806Z,98863.29
2024-02-11T02:01:41.466Z,98864.78
2024-02-11T02:02:45.220Z,98864.83
2024-02-11T02:03:48.398Z,98869.19
2024-02-11T02:04:53.006Z,98865.11
2024-02-11T02:05:56.468Z,98859.37
2024-02-11T02:06:59.073Z,98862.81
2024-02-11T02:08:04.406Z,98862.66
2024-02-11T02:09:08.196Z,98863.58
2024-02-11T02:10:11.251Z,98859.30
2024-02-11T02:11:13.856Z,98861.62
2024-02-11T02:12:19.426Z,98858.92
2024-02-11T02:13:21.727Z,98857.25
2024-02-11T02:14:24.172Z,98852.26
2024-02-11T02:15:27.093Z,98853.09
2024-02-11T02:16:29.840Z,98841.83
2024-02-11T02:17:34.334Z,98843.58
2024-02-11T02:18:37.427Z,98845.50
2024-02-11T02:19:40.031Z,98845.34
2024-02-11T02:20:42.407Z,98853.78
2024-02-11T02:21:54.872Z,98851.05
2024-02-11T02:22:58.660Z,98855.22
2024-02-11T02:24:01.841Z,98854.28
2024-02-11T02:25:05.082Z,98850.01
2024-02-11T02:26:08.384Z,98853.52
2024-02-11T02:27:12.588Z,98848.27
2024-02-11T02:28:14.805Z,98859.42
2024-02-11T02:29:17.175Z,98855.05
2024-02-11T02:30:19.688Z,98849.84
2024-02-11T02:31:22.352Z,98849.91
2024-02-11T02:32:24.974Z,98855.38
2024-02-11T02:33:27.885Z,98866.57
2024-02-11T02:34:32.188Z,98863.14
2024-02-11T02:35:34.946Z,98865.55
2024-02-11T02:36:37.915Z,98863.29
2024-02-11T02:37:40.261Z,98869.47
2024-02-11T02:38:42.767Z,98881.27
2024-02-11T02:39:45.153Z,98870.89
2024-02-11T02:40:48.354Z,98881.21
2024-02-11T02:41:50.590Z,98884.97
2024-02-11T02:42:53.895Z,98878.69
2024-02-11T02:43:56.190Z,98880.23
2024-02-11T02:44:58.401Z,98880.08
2024-02-11T02:46:00.538Z,98887.61
2024-02-11T02:47:02.709Z,98886.63
2024-02-11T02:48:06.849Z,98889.40
2024-02-11T02:49:10.333Z,98885.05
2024-02-11T02:50:15.685Z,98887.06
2024-02-11T02:51:20.493Z,98871.81
2024-02-11T02:52:22.794Z,98881.05
2024-02-11T02:53:25.339Z,98874.22
2024-02-11T02:54:28.089Z,98870.62
2024-02-11T02:55:32.127Z,98869.09
2024-02-11T02:56:37.465Z,98866.45
2024-02-11T02:57:39.804Z,98858.83
2024-02-11T02:58:43.487Z,98862.20
2024-02-11T02:59:45.907Z,98872.63
2024-02-11T03:00:48.177Z,98865.64
2024-02-11T03:01:50.513Z,98870.62
2024-02-11T03:02:53.248Z,98859.59
2024-02-11T03:03:57.241Z,98850.89
2024-02-11T03:04:59.512Z,98858.49
2024-02-11T03:06:01.871Z,98868.77
2024-02-11T03:07:06.295Z,98869.69
2024-02-11T03:08:09.027Z,98868.00
2024-02-11T03:09:11.544Z,98858.33
2024-02-11T03:10:16.318Z,98856.57
2024-02-11T03:11:18.948Z,98848.81
2024-02-11T03:12:21.229Z,98847.98
2024-02-11T03:13:23.978Z,98850.63
2024-02-11T03:14:27.035Z,98846.63
2024-02-11T03:15:29.358Z,98852.71
2024-02-11T03:16:31.844Z,98844.88
2024-02-11T03:17:34.351Z,98846.47
2024-02-11T03:18:36.616Z,98854.38
2024-02-11T03:19:38.651Z,98855.27
2024-02-11T03:20:41.407Z,98849.25
2024-02-11T03:21:47.477Z,98849.25
2024-02-11T03:22:52.045Z,98848.32
2024-02-11T03:23:54.335Z,98848.16
2024-02-11T03:24:56.430Z,98841.27
2024-02-11T03:26:01.039Z,98835.86
2024-02-11T03:27:05.418Z,98842.37
2024-02-11T03:28:07.890Z,98848.66
2024-02-11T03:29:10.512Z,98852.00
2024-02-11T03:30:16.109Z,98850.24
2024-02-11T03:31:20.231Z,98853.52
2024-02-11T03:32:22.472Z,98849.96
2024-02-11T03:33:26.019Z,98861.88
2024-02-11T03:34:28.305Z,98860.70
2024-02-11T03:35:30.442Z,98854.98
2024-02-11T03:36:34.039Z,98857.13
2024-02-11T03:37:36.341Z,98853.78
2024-02-11T03:38:38.776Z,98856.97
2024-02-11T03:39:40.812Z,98844.78
2024-02-11T03:40:45.666Z,98847.17
2024-02-11T03:41:48.474Z,98841.21
2024-02-11T03:42:51.516Z,98837.78
2024-02-11T03:43:53.847Z,98844.54
2024-02-11T03:44:56.067Z,98852.08
2024-02-11T03:45:58.802Z,98851.80
2024-02-11T03:47:03.620Z,98846.64
2024-02-11T03:48:08.158Z,98851.80
2024-02-11T03:49:10.678Z,98855.98
2024-02-11T03:50:15.827Z,98856.64
2024-02-11T03:51:18.799Z,98858.13
2024-02-11T03:52:21.670Z,98859.66
2024-02-11T03:53:24.319Z,98855.17
2024-02-11T03:54:26.542Z,98852.08
2024-02-11T03:55:31.073Z,98859.61
2024-02-11T03:56:35.528Z,98862.07
2024-02-11T03:57:41.163Z,98863.77
2024-02-11T03:58:43.903Z,98866.20
2024-02-11T03:59:46.150Z,98869.53
2024-02-11T04:00:48.798Z,98867.55
2024-02-11T04:01:51.186Z,98867.55
2024-02-11T04:02:54.419Z,98862.34
2024-02-11T04:03:57.148Z,98877.53
2024-02-11T04:05:00.665Z,98862.88
2024-02-11T04:06:04.733Z,98862.88
2024-02-11T04:07:10.113Z,98866.17
2024-02-11T04:08:13.639Z,98861.88
2024-02-11T04:09:16.373Z,98872.30
2024-02-11T04:10:24.425Z,98871.43
2024-02-11T04:11:31.260Z,98861.27
2024-02-11T04:12:33.700Z,98866.36
2024-02-11T04:13:37.396Z,98865.48
2024-02-11T04:14:41.610Z,98866.47
2024-02-11T04:15:43.707Z,98859.70
2024-02-11T04:16:46.539Z,98852.88
2024-02-11T04:17:50.337Z,98859.86
2024-02-11T04:18:54.659Z,98860.85
2024-02-11T04:19:58.378Z,98866.89
2024-02-11T04:21:00.880Z,98860.90
2024-02-11T04:22:04.920Z,98846.38
2024-02-11T04:23:08.376Z,98863.72
2024-02-11T04:24:12.786Z,98854.33
2024-02-11T04:25:15.248Z,98866.03
2024-02-11T04:26:18.324Z,98865.81
2024-02-11T04:27:22.827Z,98866.63
2024-02-11T04:28:25.134Z,98858.83
2024-02-11T04:29:27.346Z,98858.83
2024-02-11T04:30:30.529Z,98866.13
2024-02-11T04:31:34.713Z,98867.89
2024-02-11T04:32:39.469Z,98874.59
2024-02-11T04:33:42.695Z,98870.88
2024-02-11T04:34:46.280Z,98863.39
2024-02-11T04:35:48.749Z,98864.48
2024-02-11T04:36:51.015Z,98860.77
2024-02-11T04:37:54.267Z,98860.28
2024-02-11T04:38:58.437Z,98850.79
2024-02-11T04:40:00.705Z,98855.38
2024-02-11T04:41:03.081Z,98855.61
2024-02-11T04:42:06.986Z,98846.09
2024-02-11T04:43:09.273Z,98855.92
2024-02-11T04:44:12.171Z,98856.67
2024-02-11T04:45:16.845Z,98853.95
2024-02-11T04:46:20.877Z,98850.31
2024-02-11T04:47:25.319Z,98851.44
2024-02-11T04:48:28.064Z,98850.45
2024-02-11T04:49:30.757Z,98850.67
2024-02-11T04:50:35.101Z,98854.81
2024-02-11T04:51:37.719Z,98856.33
2024-02-11T04:52:39.966Z,98856.11
2024-02-11T04:53:42.236Z,98853.31
2024-02-11T04:54:46.137Z,98858.67
2024-02-11T04:55:50.904Z,98858.09
2024-02-11T04:56:54.113Z,98858.20
2024-02-11T04:57:59.583Z,98851.44
2024-02-11T04:59:04.073Z,98853.36
2024-02-11T05:00:14.424Z,98859.47
2024-02-11T05:01:17.488Z,98860.94
2024-02-11T05:02:20.077Z,98859.84
2024-02-11T05:03:24.425Z,98854.47
2024-02-11T05:04:26.677Z,98857.55
2024-02-11T05:05:32.644Z,98854.93
2024-02-11T05:06:35.390Z,98861.94
2024-02-11T05:07:37.733Z,98858.42
2024-02-11T05:08:39.868Z,98853.95
2024-02-11T05:09:45.854Z,98860.89
2024-02-11T05:10:50.273Z,98870.55
2024-02-11T05:11:54.566Z,98873.13
2024-02-11T05:13:00.246Z,98864.66
2024-02-11T05:14:03.515Z,98862.75
2024-02-11T05:15:06.838Z,98862.53
2024-02-11T05:16:11.385Z,98868.09
2024-02-11T05:17:16.427Z,98866.25
2024-02-11T05:18:19.706Z,98858.83
2024-02-11T05:19:22.194Z,98853.78
2024-02-11T05:20:26.377Z,98858.76
2024-02-11T05:21:28.675Z,98868.86
2024-02-11T05:22:33.027Z,98873.02
2024-02-11T05:23:36.074Z,98869.02
2024-02-11T05:24:40.947Z,98863.95
2024-02-11T05:25:46.304Z,98866.30
2024-02-11T05:26:48.930Z,98868.12
2024-02-11T05:28:03.410Z,98867.56
2024-02-11T05:29:07.248Z,98867.72
2024-02-11T05:30:11.662Z,98876.45
2024-02-11T05:31:21.115Z,98877.27
2024-02-11T05:32:23.838Z,98873.06
2024-02-11T05:33:26.606Z,98871.33
2024-02-11T05:34:29.088Z,98864.55
2024-02-11T05:35:36.171Z,98870.60
2024-02-11T05:36:44.170Z,98860.25
2024-02-11T05:37:46.888Z,98864.59
2024-02-11T05:38:49.225Z,98870.40
2024-02-11T05:39:51.900Z,98873.78
2024-02-11T05:41:00.098Z,98872.86
2024-02-11T05:42:04.367Z,98868.53
2024-02-11T05:43:06.427Z,98869.59
2024-02-11T05:44:10.630Z,98875.73
2024-02-11T05:45:13.814Z,98871.48
2024-02-11T05:46:17.828Z,98874.86
2024-02-11T05:47:20.076Z,98876.55
2024-02-11T05:48:23.261Z,98873.06
2024-02-11T05:49:27.544Z,98869.59
2024-02-11T05:50:30.368Z,98876.55
2024-02-11T05:51:33.190Z,98878.09
2024-02-11T05:52:37.340Z,98873.02
2024-02-11T05:53:39.993Z,98881.59
2024-02-11T05:54:43.996Z,98874.77
2024-02-11T05:55:46.575Z,98871.27
2024-02-11T05:56:53.176Z,98876.39
2024-02-11T05:57:55.735Z,98872.05
2024-02-11T05:58:57.876Z,98866.34
2024-02-11T05:59:59.992Z,98879.22
2024-02-11T06:01:04.490Z,98876.05
2024-02-11T06:02:07.059Z,98881.95
2024-02-11T06:03:10.074Z,98883.73
2024-02-11T06:04:13.673Z,98871.02
2024-02-11T06:05:17.374Z,98870.40
2024-02-11T06:06:20.171Z,98872.98
2024-02-11T06:07:22.985Z,98870.41
2024-02-11T06:08:26.299Z,98875.59
2024-02-11T06:09:28.964Z,98880.80
2024-02-11T06:10:33.906Z,98875.73
2024-02-11T06:11:36.755Z,98879.27
2024-02-11T06:12:41.264Z,98882.84
2024-02-11T06:13:43.625Z,98879.31
2024-02-11T06:14:45.747Z,98886.85
2024-02-11T06:15:48.350Z,98887.88
2024-02-11T06:16:50.874Z,98869.15
2024-02-11T06:17:54.846Z,98869.15
2024-02-11T06:18:57.355Z,98874.13
2024-02-11T06:20:00.471Z,98873.13
2024-02-11T06:21:03.402Z,98871.47
2024-02-11T06:22:06.409Z,98871.63
2024-02-11T06:23:08.787Z,98873.31
2024-02-11T06:24:11.003Z,98870.69
2024-02-11T06:25:14.311Z,98874.13
2024-02-11T06:26:18.580Z,98878.25
2024-02-11T06:27:20.747Z,98875.88
2024-02-11T06:28:22.814Z,98877.57
2024-02-11T06:29:27.160Z,98876.84
2024-02-11T06:30:29.880Z,98880.23
2024-02-11T06:31:32.605Z,98883.23
2024-02-11T06:32:39.292Z,98882.98
2024-02-11T06:33:42.241Z,98883.80
2024-02-11T06:34:47.557Z,98872.66
2024-02-11T06:35:51.144Z,98873.63
2024-02-11T06:36:54.488Z,98871.94
2024-02-11T06:37:57.315Z,98869.33
2024-02-11T06:39:01.309Z,98867.59
2024-02-11T06:40:04.661Z,98859.89
2024-02-11T06:41:08.341Z,98868.19
2024-02-11T06:42:10.500Z,98856.23
2024-02-11T06:43:13.468Z,98856.23
2024-02-11T06:44:16.896Z,98861.98
2024-02-11T06:45:20.845Z,98868.84
2024-02-11T06:46:23.261Z,98862.05
2024-02-11T06:47:26.373Z,98866.56
2024-02-11T06:48:30.202Z,98870.82
2024-02-11T06:49:34.393Z,98862.25
2024-02-11T06:50:37.908Z,98850.13
2024-02-11T06:51:41.328Z,98854.28
2024-02-11T06:52:44.862Z,98850.95
2024-02-11T06:53:48.100Z,98848.45
2024-02-11T06:54:50.251Z,98855.92
2024-02-11T06:55:54.290Z,98842.98
2024-02-11T06:56:58.643Z,98847.12
2024-02-11T06:58:00.815Z,98847.72
2024-02-11T06:59:04.895Z,98852.86
2024-02-11T07:00:12.950Z,98843.35
2024-02-11T07:01:17.019Z,98843.53
2024-02-11T07:02:19.418Z,98847.26
2024-02-11T07:03:23.833Z,98849.75
2024-02-11T07:04:28.038Z,98849.55
2024-02-11T07:05:32.621Z,98852.16
2024-02-11T07:06:37.407Z,98860.63
2024-02-11T07:07:42.394Z,98861.50
2024-02-11T07:08:44.812Z,98858.22
2024-02-11T07:09:46.978Z,98862.09
2024-02-11T07:10:49.658Z,98854.70
2024-02-11T07:11:52.316Z,98861.52
2024-02-11T07:12:55.806Z,98853.89
2024-02-11T07:14:00.029Z,98854.86
2024-02-11T07:15:06.660Z,98861.83
2024-02-11T07:16:09.574Z,98864.87
2024-02-11T07:17:14.423Z,98858.80
2024-02-11T07:18:17.208Z,98864.59
2024-02-11T07:19:20.038Z,98857.62
2024-02-11T07:20:24.086Z,98859.30
2024-02-11T07:21:30.152Z,98858.49
2024-02-11T07:22:33.805Z,98866.91
2024-02-11T07:23:36.414Z,98860.84
2024-02-11T07:24:41.112Z,98877.02
2024-02-11T07:25:44.150Z,98872.80
2024-02-11T07:26:50.126Z,98870.08
2024-02-11T07:27:52.653Z,98870.84
2024-02-11T07:28:55.038Z,98863.89
2024-02-11T07:29:58.357Z,98869.02
2024-02-11T07:31:01.204Z,98867.01
2024-02-11T07:32:04.830Z,98873.02
2024-02-11T07:33:08.404Z,98857.39
2024-02-11T07:34:17.939Z,98863.39
2024-02-11T07:35:20.598Z,98866.03
2024-02-11T07:36:23.352Z,98868.86
2024-02-11T07:37:25.646Z,98873.02
2024-02-11T07:38:31.921Z,98861.70
2024-02-11T07:39:34.231Z,98868.30
2024-02-11T07:40:37.607Z,98867.09
2024-02-11T07:41:41.789Z,98859.26
2024-02-11T07:42:46.430Z,98871.16
2024-02-11T07:43:54.046Z,98870.39
2024-02-11T07:44:57.379Z,98867.84
2024-02-11T07:46:00.916Z,98868.78
2024-02-11T07:47:05.375Z,98870.34
2024-02-11T07:48:10.680Z,98869.19
2024-02-11T07:49:14.020Z,98880.50
2024-02-11T07:50:18.174Z,98875.66
2024-02-11T07:51:22.170Z,98883.36
2024-02-11T07:52:24.894Z,98887.56
2024-02-11T07:53:27.782Z,98881.45
2024-02-11T07:54:31.796Z,98893.95
2024-02-11T07:55:35.424Z,98894.13
2024-02-11T07:56:39.000Z,98883.36
2024-02-11T07:57:42.192Z,98890.95
2024-02-11T07:58:45.111Z,98891.84
2024-02-11T07:59:47.581Z,98888.91
2024-02-11T08:00:51.343Z,98899.09
2024-02-11T08:01:55.795Z,98906.36
2024-02-11T08:02:59.089Z,98904.55
2024-02-11T08:04:01.563Z,98903.91
2024-02-11T08:05:04.785Z,98902.39
2024-02-11T08:06:10.189Z,98912.02
2024-02-11T08:07:12.319Z,98911.37
2024-02-11T08:08:15.358Z,98906.05
2024-02-11T08:09:17.847Z,98906.93
2024-02-11T08:10:22.330Z,98907.92
2024-02-11T08:11:26.744Z,98907.88
2024-02-11T08:12:29.128Z,98917.39
2024-02-11T08:13:34.369Z,98905.20
2024-02-11T08:14:38.692Z,98919.56
2024-02-11T08:15:42.658Z,98915.28
2024-02-11T08:16:47.698Z,98922.24
2024-02-11T08:17:50.039Z,98912.73
2024-02-11T08:18:55.557Z,98912.73
2024-02-11T08:19:57.748Z,98916.18
2024-02-11T08:21:00.790Z,98922.98
2024-02-11T08:22:06.213Z,98923.10
2024-02-11T08:23:10.451Z,98922.94
2024-02-11T08:24:15.789Z,98912.56
2024-02-11T08:25:21.891Z,98912.50
2024-02-11T08:26:25.384Z,98915.12
2024-02-11T08:27:28.242Z,98911.26
2024-02-11T08:28:31.231Z,98906.08
2024-02-11T08:29:33.470Z,98914.25
2024-02-11T08:30:36.770Z,98908.07
2024-02-11T08:31:39.034Z,98909.22
2024-02-11T08:32:43.429Z,98914.36
2024-02-11T08:33:48.169Z,98906.81
2024-02-11T08:34:50.973Z,98916.44
2024-02-11T08:35:53.072Z,98918.36
2024-02-11T08:36:55.787Z,98916.02
2024-02-11T08:38:00.009Z,98923.72
2024-02-11T08:39:03.313Z,98928.68
2024-02-11T08:40:08.085Z,98925.90
2024-02-11T08:41:10.488Z,98919.72
2024-02-11T08:42:15.469Z,98927.48
2024-02-11T08:43:19.668Z,98933.16
2024-02-11T08:44:22.087Z,98934.80
2024-02-11T08:45:24.786Z,98933.22
2024-02-11T08:46:27.643Z,98939.18
2024-02-11T08:47:29.928Z,98941.96
2024-02-11T08:48:33.089Z,98931.85
2024-02-11T08:49:36.525Z,98932.77
2024-02-11T08:50:39.348Z,98929.60
2024-02-11T08:51:41.459Z,98928.70
2024-02-11T08:52:45.699Z,98932.23
2024-02-11T08:53:47.938Z,98930.54
2024-02-11T08:54:51.910Z,98927.86
2024-02-11T08:55:54.607Z,98926.94
2024-02-11T08:56:57.169Z,98916.55
2024-02-11T08:58:00.597Z,98920.77
2024-02-11T08:59:04.393Z,98919.79
2024-02-11T09:00:13.413Z,98911.32
2024-02-11T09:01:16.360Z,98914.03
2024-02-11T09:02:18.756Z,98906.33
2024-02-11T09:03:21.630Z,98917.80
2024-02-11T09:04:25.178Z,98910.43
2024-02-11T09:05:28.573Z,98918.17
2024-02-11T09:06:31.570Z,98911.30
2024-02-11T09:07:35.018Z,98921.56
2024-02-11T09:08:38.629Z,98919.11
2024-02-11T09:09:41.856Z,98919.11
2024-02-11T09:10:45.711Z,98918.34
2024-02-11T09:11:49.049Z,98913.92
2024-02-11T09:12:51.416Z,98914.62
2024-02-11T09:13:54.049Z,98919.71
2024-02-11T09:14:58.101Z,98921.36
2024-02-11T09:16:01.012Z,98915.30
2024-02-11T09:17:03.318Z,98926.37
2024-02-11T09:18:10.890Z,98916.33
2024-02-11T09:19:15.499Z,98920.37
2024-02-11T09:20:21.110Z,98919.40
2024-02-11T09:21:24.314Z,98920.05
2024-02-11T09:22:28.005Z,98925.02
2024-02-11T09:23:31.139Z,98927.55
2024-02-11T09:24:36.840Z,98934.69
2024-02-11T09:25:42.816Z,98929.46
2024-02-11T09:26:46.456Z,98935.45
2024-02-11T09:27:48.686Z,98923.33
2024-02-11T09:28:51.991Z,98923.00
2024-02-11T09:29:54.243Z,98934.73
2024-02-11T09:30:57.082Z,98930.27
2024-02-11T09:31:59.968Z,98933.76
2024-02-11T09:33:02.188Z,98929.50
2024-02-11T09:34:06.425Z,98927.91
2024-02-11T09:35:10.292Z,98931.90
2024-02-11T09:36:13.651Z,98931.78
2024-02-11T09:37:15.955Z,98930.48
2024-02-11T09:38:21.514Z,98927.74
2024-02-11T09:39:25.468Z,98918.64
2024-02-11T09:40:29.225Z,98927.81
2024-02-11T09:41:33.216Z,98927.81
2024-02-11T09:42:35.876Z,98922.06
2024-02-11T09:43:40.687Z,98921.84
2024-02-11T09:44:46.907Z,98920.10
2024-02-11T09:45:53.967Z,98920.97
2024-02-11T09:47:00.804Z,98925.24
2024-02-11T09:48:05.848Z,98922.77
2024-02-11T09:49:10.556Z,98906.43
2024-02-11T09:50:16.203Z,98914.25
2024-02-11T09:51:21.101Z,98907.53
2024-02-11T09:52:24.610Z,98908.19
2024-02-11T09:53:28.668Z,98911.62
2024-02-11T09:54:32.441Z,98910.64
2024-02-11T09:55:40.401Z,98910.69
2024-02-11T09:56:43.856Z,98908.95
2024-02-11T09:57:46.348Z,98903.91
2024-02-11T09:58:48.752Z,98911.98
2024-02-11T09:59:51.816Z,98902.27
2024-02-11T10:00:55.965Z,98914.19
2024-02-11T10:01:59.958Z,98912.27
2024-02-11T10:03:03.936Z,98905.14
2024-02-11T10:04:09.519Z,98915.53
2024-02-11T10:05:14.016Z,98919.80
2024-02-11T10:06:21.071Z,98918.57
2024-02-11T10:07:24.742Z,98925.81
2024-02-11T10:08:27.232Z,98921.38
2024-02-11T10:09:29.988Z,98919.57
2024-02-11T10:10:32.435Z,98912.09
2024-02-11T10:11:35.146Z,98921.38
2024-02-11T10:12:40.348Z,98917.13
2024-02-11T10:13:45.141Z,98917.13
2024-02-11T10:14:55.729Z,98905.84
2024-02-11T10:15:57.987Z,98908.78
2024-02-11T10:17:00.513Z,98905.44
2024-02-11T10:18:09.896Z,98899.84
2024-02-11T10:19:14.941Z,98899.48
2024-02-11T10:20:18.937Z,98899.23
2024-02-11T10:21:22.081Z,98899.95
2024-02-11T10:22:28.721Z,98894.56
2024-02-11T10:23:29.965Z,98886.38
2024-02-11T10:24:33.536Z,98889.06
2024-02-11T10:25:36.607Z,98889.13
2024-02-11T10:26:39.939Z,98880.90
2024-02-11T10:27:43.614Z,98879.89
2024-02-11T10:28:47.541Z,98891.30
2024-02-11T10:29:52.200Z,98892.94
2024-02-11T10:30:57.672Z,98883.72
2024-02-11T10:32:07.129Z,98889.03
2024-02-11T10:33:12.551Z,98886.47
2024-02-11T10:34:15.235Z,98894.81
2024-02-11T10:35:18.294Z,98892.36
2024-02-11T10:36:25.098Z,98890.50
2024-02-11T10:37:27.276Z,98892.13
2024-02-11T10:38:32.840Z,98890.32
2024-02-11T10:39:38.395Z,98889.94
2024-02-11T10:40:44.334Z,98887.86
2024-02-11T10:41:47.422Z,98898.19
2024-02-11T10:42:51.861Z,98888.61
2024-02-11T10:43:55.290Z,98894.45
2024-02-11T10:44:58.987Z,98885.46
2024-02-11T10:46:05.284Z,98886.11
2024-02-11T10:47:08.845Z,98882.59
2024-02-11T10:48:13.760Z,98871.75
2024-02-11T10:49:16.809Z,98871.75
2024-02-11T10:50:20.128Z,98871.38
2024-02-11T10:51:25.094Z,98863.43
2024-02-11T10:52:31.297Z,98863.81
2024-02-11T10:53:37.332Z,98861.48
2024-02-11T10:54:46.241Z,98862.88
2024-02-11T10:55:49.744Z,98859.34
2024-02-11T10:56:56.388Z,98866.42
2024-02-11T10:58:01.008Z,98861.95
2024-02-11T10:59:14.235Z,98874.31
2024-02-11T11:00:22.756Z,98872.52
2024-02-11T11:01:27.587Z,98873.50
2024-02-11T11:02:36.118Z,98876.58
2024-02-11T11:03:40.730Z,98873.31
2024-02-11T11:04:46.972Z,98874.67
2024-02-11T11:05:50.804Z,98871.30
2024-02-11T11:06:54.653Z,98875.50
2024-02-11T11:08:01.426Z,98879.95
2024-02-11T11:09:06.563Z,98873.05
2024-02-11T11:10:12.387Z,98880.64
2024-02-11T11:11:27.235Z,98882.14
2024-02-11T11:12:29.889Z,98875.30
2024-02-11T11:13:32.845Z,98883.83
2024-02-11T11:14:43.870Z,98882.14
2024-02-11T11:15:49.785Z,98888.69
2024-02-11T11:16:53.566Z,98887.09
2024-02-11T11:17:56.159Z,98867.10
2024-02-11T11:19:05.195Z,98879.69
2024-02-11T11:20:14.676Z,98870.42
2024-02-11T11:21:17.493Z,98874.94
2024-02-11T11:22:24.616Z,98871.65
2024-02-11T11:23:31.384Z,98876.51
2024-02-11T11:24:37.392Z,98865.06
2024-02-11T11:25:41.014Z,98868.30
2024-02-11T11:26:54.539Z,98857.87
2024-02-11T11:28:13.001Z,98852.58
2024-02-11T11:29:15.325Z,98850.01
2024-02-11T11:30:21.322Z,98848.47
2024-02-11T11:31:26.959Z,98851.75
2024-02-11T11:32:30.235Z,98845.69
2024-02-11T11:33:34.958Z,98846.57
2024-02-11T11:34:38.749Z,98848.34
2024-02-11T11:35:42.019Z,98842.94
2024-02-11T11:36:45.650Z,98845.01
2024-02-11T11:37:48.874Z,98851.75
2024-02-11T11:38:52.395Z,98846.42
2024-02-11T11:39:58.276Z,98847.41
2024-02-11T11:41:04.219Z,98849.20
2024-02-11T11:42:07.297Z,98844.06
2024-02-11T11:43:17.473Z,98847.41
2024-02-11T11:44:23.391Z,98842.11
2024-02-11T11:45:26.104Z,98853.23
2024-02-11T11:46:29.208Z,98848.20
2024-02-11T11:47:31.601Z,98851.27
2024-02-11T11:48:35.949Z,98847.74
2024-02-11T11:49:39.443Z,98847.31
2024-02-11T11:50:42.761Z,98845.62
2024-02-11T11:51:45.962Z,98847.31
2024-02-11T11:52:52.136Z,98849.09
2024-02-11T11:53:54.409Z,98843.65
2024-02-11T11:54:57.093Z,98847.45
2024-02-11T11:56:02.557Z,98839.00
2024-02-11T11:57:11.064Z,98849.48
2024-02-11T11:58:22.130Z,98850.98
2024-02-11T11:59:26.961Z,98852.55
2024-02-11T12:00:36.519Z,98854.52
2024-02-11T12:03:05.409Z,98841.91
2024-02-11T12:04:10.519Z,98847.26
2024-02-11T12:05:17.639Z,98846.43
2024-02-11T12:06:23.313Z,98848.48
2024-02-11T12:07:26.642Z,98840.16
2024-02-11T12:08:29.796Z,98838.00
2024-02-11T12:09:36.733Z,98842.05
2024-02-11T12:10:41.122Z,98842.94
2024-02-11T12:11:48.673Z,98856.80
2024-02-11T12:12:50.969Z,98862.75
2024-02-11T12:13:53.481Z,98853.03
2024-02-11T12:16:15.150Z,98858.55
2024-02-11T12:17:17.468Z,98854.84
2024-02-11T12:18:26.940Z,98861.12
2024-02-11T12:19:41.816Z,98867.78
2024-02-11T12:20:44.257Z,98862.77
2024-02-11T12:21:47.900Z,98858.92
2024-02-11T12:22:51.948Z,98851.27
2024-02-11T12:24:00.909Z,98841.09
2024-02-11T12:25:03.418Z,98857.35
2024-02-11T12:26:07.116Z,98849.17
2024-02-11T12:27:19.189Z,98850.72
2024-02-11T12:29:43.766Z,98843.94
2024-02-11T12:30:52.478Z,98855.89
2024-02-11T12:31:58.512Z,98848.58
2024-02-11T12:33:04.367Z,98849.33
2024-02-11T12:34:08.692Z,98843.75
2024-02-11T12:36:39.398Z,98836.89